FW9112 Weather Reports


Display with metric or nautical units.
time (UTC)temp
F
wind
direction
speed
MPH
gust
MPH
rain 1hr
in
rain 24hr
in
rain mn
in
humidity
%
barometer
mb
20220701043231 77 0.0 0.0 0.00 0.00 0.00 33 1018.4
20220701042226 78 0.0 0.0 0.00 0.00 0.00 33 1018.0
20220701041221 78 0.0 0.0 0.00 0.00 0.00 33 1018.4
20220701040235 78 0.0 0.0 0.00 0.00 0.00 32 1017.9
20220701035230 79 0.0 0.0 0.00 0.00 0.00 31 1017.7
20220701034226 80 0.0 0.0 0.00 0.00 0.00 30 1017.7
20220701033219 80 0.0 0.0 0.00 0.00 0.00 30 1017.5
20220701032233 80 0.0 0.0 0.00 0.00 0.00 30 1017.4
20220701031228 80 0.0 0.0 0.00 0.00 0.00 30 1017.3
20220701030222 81 0.0 0.0 0.00 0.00 0.00 29 1017.1
20220701025217 82 0.0 0.0 0.00 0.00 0.00 29 1017.2
20220701024231 83 0.0 0.0 0.00 0.00 0.00 28 1017.0
20220701023227 84 0.0 0.0 0.00 0.00 0.00 27 1017.0
20220701022221 86 197 0.0 1.0 0.00 0.00 0.00 26 1016.9
20220701021237 87 163 1.0 2.0 0.00 0.00 0.00 26 1016.8
20220701020230 87 166 1.0 6.0 0.00 0.00 0.00 25 1016.7
20220701015225 88 0.0 0.0 0.00 0.00 0.00 24 1016.7
20220701014220 89 0.0 0.0 0.00 0.00 0.00 23 1016.3
20220701013235 90 0.0 0.0 0.00 0.00 0.00 22 1016.3
20220701012232 90 205 1.0 4.0 0.00 0.00 0.00 22 1016.3
20220701011225 90 148 2.0 6.0 0.00 0.00 0.00 22 1016.3
20220701010248 91 237 1.0 3.0 0.00 0.00 0.00 21 1016.2
20220701005235 91 0.0 0.0 0.00 0.00 0.00 22 1016.2
20220701004229 92 158 2.0 7.0 0.00 0.00 0.00 21 1016.5
20220701003238 92 212 3.0 7.0 0.00 0.00 0.00 21 1016.4
20220701002219 93 177 3.0 8.0 0.00 0.00 0.00 20 1016.4
20220701001233 93 231 1.0 4.0 0.00 0.00 0.00 21 1016.4
20220701000229 93 224 3.0 6.0 0.00 0.00 0.00 21 1016.5
20220630235223 94 0.0 0.0 0.00 0.00 0.00 21 1016.3
20220630234218 95 216 2.0 7.0 0.00 0.00 0.00 20 1016.4
20220630233233 93 234 0.0 2.0 0.00 0.00 0.00 21 1016.4
20220630232227 94 131 0.0 1.0 0.00 0.00 0.00 19 1016.6
20220630231225 95 0.0 0.0 0.00 0.00 0.00 19 1016.9
20220630230217 95 264 0.0 1.0 0.00 0.00 0.00 18 1016.7
20220630225234 94 87 0.0 1.0 0.00 0.00 0.00 18 1017.0
20220630224229 97 173 0.0 2.0 0.00 0.00 0.00 17 1017.1
20220630223223 96 0.0 0.0 0.00 0.00 0.00 18 1016.9
20220630222218 95 101 1.0 3.0 0.00 0.00 0.00 18 1017.3
20220630221232 95 261 0.0 1.0 0.00 0.00 0.00 17 1017.2
20220630220227 95 201 1.0 6.0 0.00 0.00 0.00 18 1017.4
20220630215221 94 177 3.0 9.0 0.00 0.00 0.00 18 1017.3
20220630214235 94 0.0 0.0 0.00 0.00 0.00 19 1017.7
20220630213230 94 153 1.0 2.0 0.00 0.00 0.00 19 1017.7
20220630212225 94 186 0.0 1.0 0.00 0.00 0.00 18 1017.7
20220630211221 96 0.0 0.0 0.00 0.00 0.00 19 1017.8
20220630210239 96 0.0 0.0 0.00 0.00 0.00 19 1018.0
20220630205231 96 229 4.0 8.0 0.00 0.00 0.00 18 1018.3
20220630204225 94 0.0 0.0 0.00 0.00 0.00 19 1018.3
20220630203220 94 230 2.0 6.0 0.00 0.00 0.00 19 1018.3
20220630202233 94 0.0 0.0 0.00 0.00 0.00 23 1018.3
20220630201227 93 11 0.0 1.0 0.00 0.00 0.00 22 1018.6
20220630200221 93 208 2.0 4.0 0.00 0.00 0.00 21 1018.7
20220630195217 93 52 3.0 6.0 0.00 0.00 0.00 23 1018.7
20220630194232 92 244 0.0 1.0 0.00 0.00 0.00 23 1018.9
20220630193227 93 222 5.0 9.0 0.00 0.00 0.00 22 1019.2
20220630192220 92 24 1.0 2.0 0.00 0.00 0.00 24 1019.3
20220630191235 92 0.0 0.0 0.00 0.00 0.00 24 1019.4
20220630190231 92 268 0.0 1.0 0.00 0.00 0.00 26 1019.7
20220630185225 92 279 0.0 1.0 0.00 0.00 0.00 26 1019.7
20220630184219 92 257 2.0 4.0 0.00 0.00 0.00 26 1019.7
20220630183234 91 258 3.0 9.0 0.00 0.00 0.00 27 1019.7
20220630182229 91 42 2.0 3.0 0.00 0.00 0.00 24 1020.1
20220630181224 93 283 3.0 4.0 0.00 0.00 0.00 27 1020.2
20220630180241 91 291 0.0 1.0 0.00 0.00 0.00 29 1020.3
20220630175233 91 199 6.0 10.0 0.00 0.00 0.00 27 1020.3
20220630174227 90 232 3.0 6.0 0.00 0.00 0.00 29 1020.4
20220630173221 90 241 5.0 8.0 0.00 0.00 0.00 29 1020.6
20220630172236 90 210 3.0 6.0 0.00 0.00 0.00 31 1020.7
20220630171231 90 231 4.0 7.0 0.00 0.00 0.00 32 1021.0
20220630170227 89 229 6.0 9.0 0.00 0.00 0.00 32 1021.0
20220630165221 90 155 5.0 8.0 0.00 0.00 0.00 32 1021.0
20220630164236 88 241 4.0 8.0 0.00 0.00 0.00 35 1021.0
20220630163231 88 236 5.0 7.0 0.00 0.00 0.00 33 1021.1
20220630162227 87 208 4.0 6.0 0.00 0.00 0.00 36 1021.2
20220630161221 87 240 4.0 9.0 0.00 0.00 0.00 37 1021.2
20220630160235 87 221 5.0 8.0 0.00 0.00 0.00 37 1021.3
20220630155229 86 244 3.0 6.0 0.00 0.00 0.00 39 1021.4
20220630154224 86 207 6.0 11.0 0.00 0.00 0.00 39 1021.5
20220630153217 84 216 5.0 9.0 0.00 0.00 0.00 41 1021.5
20220630152232 84 227 4.0 8.0 0.00 0.00 0.00 42 1021.3
20220630151226 84 242 2.0 3.0 0.00 0.00 0.00 43 1021.6
20220630150220 83 220 5.0 7.0 0.00 0.00 0.00 43 1021.8
20220630145235 82 235 4.0 7.0 0.00 0.00 0.00 45 1021.8
20220630144231 82 209 4.0 7.0 0.00 0.00 0.00 46 1021.8
20220630143226 81 212 4.0 7.0 0.00 0.00 0.00 47 1021.8
20220630142220 80 222 5.0 8.0 0.00 0.00 0.00 48 1021.7
20220630141234 80 217 4.0 7.0 0.00 0.00 0.00 48 1021.8
20220630140229 79 238 6.0 8.0 0.00 0.00 0.00 49 1021.8
20220630135223 79 218 7.0 10.0 0.00 0.00 0.00 49 1021.6
20220630134219 78 219 3.0 3.0 0.00 0.00 0.00 51 1021.8
20220630133234 77 213 4.0 7.0 0.00 0.00 0.00 53 1021.7
20220630132227 76 247 1.0 2.0 0.00 0.00 0.00 55 1021.8
20220630131223 74 228 2.0 3.0 0.00 0.00 0.00 58 1021.5
20220630130219 72 224 2.0 4.0 0.00 0.00 0.00 61 1021.8
20220630125234 70 236 2.0 2.0 0.00 0.00 0.00 65 1021.8
20220630124229 69 206 4.0 7.0 0.00 0.00 0.00 67 1021.8
20220630123222 68 212 3.0 4.0 0.00 0.00 0.00 68 1022.1
20220630122217 67 218 2.0 4.0 0.00 0.00 0.00 70 1022.0
20220630121232 67 217 1.0 2.0 0.00 0.00 0.00 71 1021.9
20220630120226 66 232 1.0 2.0 0.00 0.00 0.00 72 1022.0
20220630115220 66 231 2.0 3.0 0.00 0.00 0.00 72 1021.8
20220630114235 66 232 1.0 2.0 0.00 0.00 0.00 73 1022.1
20220630113257 66 233 1.0 2.0 0.00 0.00 0.00 72 1021.8
20220630112222 67 232 1.0 2.0 0.00 0.00 0.00 71 1022.1
20220630111217 67 232 1.0 2.0 0.00 0.00 0.00 71 1021.9
20220630110232 66 228 1.0 2.0 0.00 0.00 0.00 71 1021.9
20220630105228 67 0.0 0.0 0.00 0.00 0.00 70 1021.9
20220630104223 67 228 1.0 1.0 0.00 0.00 0.00 70 1021.9
20220630103217 67 228 1.0 2.0 0.00 0.00 0.00 70 1022.1
20220630102234 67 228 1.0 1.0 0.00 0.00 0.00 69 1021.9
20220630101227 67 228 1.0 1.0 0.00 0.00 0.00 70 1021.9
20220630100222 67 228 1.0 2.0 0.00 0.00 0.00 70 1022.0
20220630095219 67 227 1.0 2.0 0.00 0.00 0.00 71 1022.1
20220630094233 67 227 1.0 1.0 0.00 0.00 0.00 71 1022.2
20220630093227 67 227 1.0 1.0 0.00 0.00 0.00 70 1022.3
20220630092222 68 227 1.0 2.0 0.00 0.00 0.00 69 1022.2
20220630091218 68 227 0.0 1.0 0.00 0.00 0.00 69 1022.3
20220630090232 68 227 1.0 2.0 0.00 0.00 0.00 67 1022.2
20220630085226 69 223 1.0 2.0 0.00 0.00 0.00 66 1022.3
20220630084221 69 227 1.0 2.0 0.00 0.00 0.00 66 1022.5
20220630083237 69 222 2.0 3.0 0.00 0.00 0.00 65 1022.5
20220630082232 70 227 1.0 2.0 0.00 0.00 0.00 63 1022.5
20220630081226 70 228 1.0 3.0 0.00 0.00 0.00 63 1022.7
20220630080220 71 231 2.0 3.0 0.00 0.00 0.00 62 1022.7
20220630075305 71 206 2.0 4.0 0.00 0.00 0.00 61 1022.9
20220630074230 71 219 2.0 3.0 0.00 0.00 0.00 60 1022.8
20220630073225 71 220 2.0 4.0 0.00 0.00 0.00 60 1023.0
20220630072220 71 219 3.0 4.0 0.00 0.00 0.00 60 1022.9
20220630071234 72 235 1.0 2.0 0.00 0.00 0.00 59 1022.9
20220630070228 72 240 2.0 2.0 0.00 0.00 0.00 58 1023.1
20220630065222 71 231 3.0 4.0 0.00 0.00 0.00 59 1022.9
20220630064217 71 228 2.0 3.0 0.00 0.00 0.00 59 1023.0
20220630063231 71 235 2.0 2.0 0.00 0.00 0.00 59 1023.1
20220630062227 71 236 1.0 2.0 0.00 0.00 0.00 58 1023.0
20220630061220 72 235 1.0 1.0 0.00 0.00 0.00 57 1023.2
20220630060236 72 240 0.0 2.0 0.00 0.00 0.00 55 1023.1
20220630055229 73 224 1.0 2.0 0.00 0.00 0.00 54 1023.1
20220630054225 73 230 2.0 3.0 0.00 0.00 0.00 54 1023.0
20220630053219 74 237 1.0 2.0 0.00 0.00 0.00 54 1023.1
20220630052235 74 238 2.0 3.0 0.00 0.00 0.00 53 1022.9
20220630051228 74 240 2.0 2.0 0.00 0.00 0.00 53 1022.8
20220630050222 74 243 1.0 2.0 0.00 0.00 0.00 52 1023.0
20220630045236 75 246 2.0 2.0 0.00 0.00 0.00 51 1022.9
20220630044232 75 224 2.0 3.0 0.00 0.00 0.00 50 1023.0